Ana Sayfa
METAR-TAF:

METAR-TAF

Havaalanları :

Balıkesir Koca Seyit Havalimanı

Edremit, Türkiye

Enlem: 39-33-16N, Boylam: 27-00-49E, yükseklik: 15 m

Güncel hava durumu gözlemi

Rapor saat 00:50 UTC de 1 saat ve 16 dakika önce yapıldı.
Rüzgar doğudan 8 kt
Sıcaklık 17°C
Nem 82%
Basınç 1016 hPa
Görüş mesafesi 10 km veya daha fazla
1500 m altında bulut yok ve kümülonimbus yok

METAR: LTFD 190050Z 10008KT CAVOK 17/14 Q1016

Saat: 05:06 (02:06 UTC)

Tahmin

Rapor saat 22:40 UTC de 3 saat ve 26 dakika önce yapıldı.
Ayın 19'si saat 00 UTC'den ayın 19'si saat 09 UTC'ye kadar geçerli Tahmin
Rüzgar doğudan 8 kt
Görüş mesafesi 10 km veya daha fazla
1500 m altında bulut yok ve kümülonimbus yok

TAF: LTFD 182240Z 1900/1909 08008KT CAVOK

4.000'den fazla havaalanı için hava durumu gözlemleri ve tahminleri (METAR ve TAF raporları).

Kullanılabilir istasyonlar harita üzerinde sarı ve kırmızı noktalarla gösterilir.

İstasyonun adını görmek için fareyi noktanın üzerinde gezdirin.

Sonrasında hava gözlem ve tahminlerini görmek için tıklayın.

Haritayı değiştirmek için: yaklaştırmak için siyah artı işaretli yeşil düğmeye ve uzaklaştırmak için de eksi işaretli düğmeye hızla tıklayın; bitişik haritalar için yeşil okları kullanın.


METAR-TAF: